Leeswood, United Kingdom
Current Conditions -  °F | °C
As of 5:20 PM on Tuesday 21 Oct 2014 (Local Time) from EGNR Reporting Station
Rain Showers Rain Showers  
Wind Chill: 10°   Ceiling: Unl
Heat Index: 10°   Visibility: 6mi
Dew Point:   Wind: 29mph
Humidity: 71%   Direction: 300°WNW
Pressure: 29.88"   Gusts: 45mph
Location:  53.13°N, 3.09°W
Report Text: EGNR 211620Z 30025G39KT 9999 7000NE VCSH SCT018 10/05 Q1012
Loading
Personal Weather Stations






























Interactive Weather Map
Tropical Storm Tracking
New forecast layout! Learn more

10-Day Weather Forecast

Advertisements
Track Severe Weather on mobile